sensor_id;sensor_type;location;lat;lon;timestamp;pressure;altitude;pressure_sealevel;temperature;humidity
82033;BME280;71595;52.180;4.512;2024-03-06T00:00:53;101841.09;;;6.98;84.78
82033;BME280;71595;52.180;4.512;2024-03-06T00:03:18;101841.38;;;6.97;84.47
82033;BME280;71595;52.180;4.512;2024-03-06T00:05:43;101842.47;;;6.96;84.71
82033;BME280;71595;52.180;4.512;2024-03-06T00:08:10;101836.69;;;6.97;84.80
82033;BME280;71595;52.180;4.512;2024-03-06T00:10:36;101844.50;;;6.85;84.72
82033;BME280;71595;52.180;4.512;2024-03-06T00:13:01;101846.16;;;6.86;84.13
82033;BME280;71595;52.180;4.512;2024-03-06T00:15:26;101861.50;;;6.87;85.51
82033;BME280;71595;52.180;4.512;2024-03-06T00:17:52;101863.72;;;6.85;84.31
82033;BME280;71595;52.180;4.512;2024-03-06T00:20:18;101871.44;;;6.83;85.42
82033;BME280;71595;52.180;4.512;2024-03-06T00:22:43;101869.91;;;6.72;85.56
82033;BME280;71595;52.180;4.512;2024-03-06T00:25:09;101884.50;;;6.62;85.36
82033;BME280;71595;52.180;4.512;2024-03-06T00:27:34;101873.34;;;6.53;86.10
82033;BME280;71595;52.180;4.512;2024-03-06T00:29:59;101890.56;;;6.64;86.34
82033;BME280;71595;52.180;4.512;2024-03-06T00:32:25;101892.75;;;6.62;86.54
82033;BME280;71595;52.180;4.512;2024-03-06T00:34:50;101895.53;;;6.57;86.86
82033;BME280;71595;52.180;4.512;2024-03-06T00:37:15;101889.25;;;6.56;87.35
82033;BME280;71595;52.180;4.512;2024-03-06T00:39:46;101895.84;;;6.55;87.04
82033;BME280;71595;52.180;4.512;2024-03-06T00:42:12;101895.22;;;6.63;87.29
82033;BME280;71595;52.180;4.512;2024-03-06T00:44:38;101882.28;;;6.69;87.50
82033;BME280;71595;52.180;4.512;2024-03-06T00:47:04;101886.91;;;6.74;86.71
82033;BME280;71595;52.180;4.512;2024-03-06T00:49:29;101884.09;;;6.79;86.43
82033;BME280;71595;52.180;4.512;2024-03-06T00:51:54;101886.28;;;6.82;86.74
82033;BME280;71595;52.180;4.512;2024-03-06T00:54:20;101889.59;;;6.79;87.26
82033;BME280;71595;52.180;4.512;2024-03-06T00:56:54;101889.34;;;6.75;87.39
82033;BME280;71595;52.180;4.512;2024-03-06T00:59:20;101893.19;;;6.79;87.14
82033;BME280;71595;52.180;4.512;2024-03-06T01:01:45;101896.28;;;6.68;88.11
82033;BME280;71595;52.180;4.512;2024-03-06T01:04:11;101899.84;;;6.68;87.42
82033;BME280;71595;52.180;4.512;2024-03-06T01:06:37;101902.34;;;6.64;87.71
82033;BME280;71595;52.180;4.512;2024-03-06T01:09:02;101901.53;;;6.64;88.14
82033;BME280;71595;52.180;4.512;2024-03-06T01:11:27;101906.47;;;6.67;88.12
82033;BME280;71595;52.180;4.512;2024-03-06T01:13:53;101902.34;;;6.64;87.82
82033;BME280;71595;52.180;4.512;2024-03-06T01:16:18;101901.50;;;6.69;88.02
82033;BME280;71595;52.180;4.512;2024-03-06T01:18:44;101899.81;;;6.73;88.45
82033;BME280;71595;52.180;4.512;2024-03-06T01:21:09;101912.41;;;6.74;87.68
82033;BME280;71595;52.180;4.512;2024-03-06T01:23:35;101907.78;;;6.70;88.01
82033;BME280;71595;52.180;4.512;2024-03-06T01:26:00;101907.31;;;6.62;88.30
82033;BME280;71595;52.180;4.512;2024-03-06T01:28:25;101903.50;;;6.58;88.81
82033;BME280;71595;52.180;4.512;2024-03-06T01:30:51;101916.69;;;6.56;88.55
82033;BME280;71595;52.180;4.512;2024-03-06T01:33:16;101911.97;;;6.62;88.26
82033;BME280;71595;52.180;4.512;2024-03-06T01:35:42;101930.88;;;6.69;88.60
82033;BME280;71595;52.180;4.512;2024-03-06T01:38:07;101930.03;;;6.68;88.68
82033;BME280;71595;52.180;4.512;2024-03-06T01:40:34;101921.00;;;6.68;88.71
82033;BME280;71595;52.180;4.512;2024-03-06T01:42:59;101918.28;;;6.62;88.93
82033;BME280;71595;52.180;4.512;2024-03-06T01:45:29;101913.91;;;6.61;88.71
82033;BME280;71595;52.180;4.512;2024-03-06T01:47:56;101918.31;;;6.57;89.20
82033;BME280;71595;52.180;4.512;2024-03-06T01:50:21;101921.63;;;6.59;88.88
82033;BME280;71595;52.180;4.512;2024-03-06T01:52:47;101918.88;;;6.54;88.73
82033;BME280;71595;52.180;4.512;2024-03-06T01:55:13;101919.97;;;6.58;88.51
82033;BME280;71595;52.180;4.512;2024-03-06T01:57:39;101928.47;;;6.57;89.43
82033;BME280;71595;52.180;4.512;2024-03-06T02:00:07;101921.03;;;6.62;88.58
82033;BME280;71595;52.180;4.512;2024-03-06T02:02:33;101917.75;;;6.60;89.36
82033;BME280;71595;52.180;4.512;2024-03-06T02:04:59;101924.94;;;6.51;89.70
82033;BME280;71595;52.180;4.512;2024-03-06T02:07:25;101933.47;;;6.50;89.48
82033;BME280;71595;52.180;4.512;2024-03-06T02:10:09;101926.66;;;6.42;89.99
82033;BME280;71595;52.180;4.512;2024-03-06T02:12:37;101929.94;;;6.44;89.92
82033;BME280;71595;52.180;4.512;2024-03-06T02:15:03;101935.97;;;6.46;90.37
82033;BME280;71595;52.180;4.512;2024-03-06T02:17:28;101939.81;;;6.45;90.17
82033;BME280;71595;52.180;4.512;2024-03-06T02:19:55;101936.53;;;6.43;90.12
82033;BME280;71595;52.180;4.512;2024-03-06T02:22:20;101929.94;;;6.44;90.65
82033;BME280;71595;52.180;4.512;2024-03-06T02:24:47;101928.25;;;6.53;90.40
82033;BME280;71595;52.180;4.512;2024-03-06T02:27:13;101936.19;;;6.55;89.57
82033;BME280;71595;52.180;4.512;2024-03-06T02:29:38;101933.72;;;6.53;89.52
82033;BME280;71595;52.180;4.512;2024-03-06T02:32:04;101933.75;;;6.48;89.71
82033;BME280;71595;52.180;4.512;2024-03-06T02:34:29;101943.88;;;6.53;89.87
82033;BME280;71595;52.180;4.512;2024-03-06T02:36:57;101936.50;;;6.48;90.22
82033;BME280;71595;52.180;4.512;2024-03-06T02:39:23;101942.25;;;6.52;89.46
82033;BME280;71595;52.180;4.512;2024-03-06T02:41:48;101936.75;;;6.52;89.50
82033;BME280;71595;52.180;4.512;2024-03-06T02:44:14;101934.06;;;6.41;89.96
82033;BME280;71595;52.180;4.512;2024-03-06T02:46:39;101936.53;;;6.43;89.80
82033;BME280;71595;52.180;4.512;2024-03-06T02:49:05;101936.03;;;6.36;89.85
82033;BME280;71595;52.180;4.512;2024-03-06T02:51:33;101937.63;;;6.42;89.65
82033;BME280;71595;52.180;4.512;2024-03-06T02:53:58;101932.47;;;6.35;90.16
82033;BME280;71595;52.180;4.512;2024-03-06T02:56:23;101929.41;;;6.42;89.04
82033;BME280;71595;52.180;4.512;2024-03-06T02:58:49;101934.34;;;6.40;89.73
82033;BME280;71595;52.180;4.512;2024-03-06T03:01:14;101933.56;;;6.39;89.61
82033;BME280;71595;52.180;4.512;2024-03-06T03:03:41;101938.72;;;6.46;89.19
82033;BME280;71595;52.180;4.512;2024-03-06T03:06:07;101943.38;;;6.45;88.97
82033;BME280;71595;52.180;4.512;2024-03-06T03:08:32;101941.16;;;6.47;88.87
82033;BME280;71595;52.180;4.512;2024-03-06T03:10:57;101934.31;;;6.50;88.83
82033;BME280;71595;52.180;4.512;2024-03-06T03:13:23;101941.41;;;6.51;88.51
82033;BME280;71595;52.180;4.512;2024-03-06T03:15:48;101937.06;;;6.45;88.78
82033;BME280;71595;52.180;4.512;2024-03-06T03:18:13;101934.59;;;6.48;88.88
82033;BME280;71595;52.180;4.512;2024-03-06T03:20:39;101941.13;;;6.58;88.16
82033;BME280;71595;52.180;4.512;2024-03-06T03:23:04;101947.41;;;6.58;88.18
82033;BME280;71595;52.180;4.512;2024-03-06T03:25:31;101951.19;;;6.68;87.85
82033;BME280;71595;52.180;4.512;2024-03-06T03:27:56;101953.97;;;6.62;88.23
82033;BME280;71595;52.180;4.512;2024-03-06T03:30:22;101952.34;;;6.61;87.84
82033;BME280;71595;52.180;4.512;2024-03-06T03:32:47;101953.97;;;6.62;88.39
82033;BME280;71595;52.180;4.512;2024-03-06T03:35:14;101947.34;;;6.69;88.18
82033;BME280;71595;52.180;4.512;2024-03-06T03:37:39;101948.41;;;6.73;88.06
82033;BME280;71595;52.180;4.512;2024-03-06T03:40:06;101949.25;;;6.73;88.14
82033;BME280;71595;52.180;4.512;2024-03-06T03:42:32;101948.94;;;6.75;87.49
82033;BME280;71595;52.180;4.512;2024-03-06T03:44:57;101954.41;;;6.80;87.60
82033;BME280;71595;52.180;4.512;2024-03-06T03:47:22;101954.63;;;6.83;87.64
82033;BME280;71595;52.180;4.512;2024-03-06T03:49:47;101953.81;;;6.83;87.22
82033;BME280;71595;52.180;4.512;2024-03-06T03:52:15;101949.47;;;6.77;87.11
82033;BME280;71595;52.180;4.512;2024-03-06T03:54:40;101960.22;;;6.73;87.82
82033;BME280;71595;52.180;4.512;2024-03-06T03:57:06;101956.47;;;6.59;87.01
82033;BME280;71595;52.180;4.512;2024-03-06T03:59:33;101950.44;;;6.57;88.32
82033;BME280;71595;52.180;4.512;2024-03-06T04:01:59;101954.84;;;6.53;87.93
82033;BME280;71595;52.180;4.512;2024-03-06T04:04:24;101959.50;;;6.57;88.08
82033;BME280;71595;52.180;4.512;2024-03-06T04:06:49;101960.91;;;6.55;87.84
82033;BME280;71595;52.180;4.512;2024-03-06T04:09:14;101959.53;;;6.52;87.89
82033;BME280;71595;52.180;4.512;2024-03-06T04:11:40;101961.19;;;6.53;88.10
82033;BME280;71595;52.180;4.512;2024-03-06T04:14:05;101962.84;;;6.49;87.97
82033;BME280;71595;52.180;4.512;2024-03-06T04:16:32;101965.63;;;6.44;88.12
82033;BME280;71595;52.180;4.512;2024-03-06T04:18:58;101963.69;;;6.44;88.93
82033;BME280;71595;52.180;4.512;2024-03-06T04:21:23;101965.63;;;6.44;87.97
82033;BME280;71595;52.180;4.512;2024-03-06T04:23:48;101971.66;;;6.46;88.43
82033;BME280;71595;52.180;4.512;2024-03-06T04:26:14;101967.81;;;6.47;88.68
82033;BME280;71595;52.180;4.512;2024-03-06T04:28:39;101974.44;;;6.41;88.13
82033;BME280;71595;52.180;4.512;2024-03-06T04:31:05;101973.28;;;6.47;88.23
82033;BME280;71595;52.180;4.512;2024-03-06T04:33:30;101974.34;;;6.51;88.57
82033;BME280;71595;52.180;4.512;2024-03-06T04:35:55;101973.25;;;6.52;88.38
82033;BME280;71595;52.180;4.512;2024-03-06T04:38:21;101976.56;;;6.49;87.69
82033;BME280;71595;52.180;4.512;2024-03-06T04:40:46;101988.63;;;6.53;87.79
82033;BME280;71595;52.180;4.512;2024-03-06T04:43:12;101986.72;;;6.48;88.37
82033;BME280;71595;52.180;4.512;2024-03-06T04:45:37;101978.22;;;6.45;88.41
82033;BME280;71595;52.180;4.512;2024-03-06T04:48:02;101992.50;;;6.47;88.47
82033;BME280;71595;52.180;4.512;2024-03-06T04:50:28;101988.06;;;6.51;88.74
82033;BME280;71595;52.180;4.512;2024-03-06T04:52:53;101994.69;;;6.50;88.42
82033;BME280;71595;52.180;4.512;2024-03-06T04:55:19;101988.13;;;6.46;88.01
82033;BME280;71595;52.180;4.512;2024-03-06T04:57:48;101993.06;;;6.39;88.67
82033;BME280;71595;52.180;4.512;2024-03-06T05:00:14;101999.41;;;6.39;88.84
82033;BME280;71595;52.180;4.512;2024-03-06T05:02:40;101994.16;;;6.43;88.53
82033;BME280;71595;52.180;4.512;2024-03-06T05:05:07;102007.91;;;6.38;88.55
82033;BME280;71595;52.180;4.512;2024-03-06T05:07:33;102013.13;;;6.39;88.45
82033;BME280;71595;52.180;4.512;2024-03-06T05:09:59;102009.25;;;6.40;89.00
82033;BME280;71595;52.180;4.512;2024-03-06T05:12:26;102009.88;;;6.32;88.36
82033;BME280;71595;52.180;4.512;2024-03-06T05:14:53;102014.47;;;6.42;88.25
82033;BME280;71595;52.180;4.512;2024-03-06T05:17:19;102018.25;;;6.51;88.06
82033;BME280;71595;52.180;4.512;2024-03-06T05:19:48;102021.00;;;6.51;87.74
82033;BME280;71595;52.180;4.512;2024-03-06T05:22:33;102020.75;;;6.47;87.66
82033;BME280;71595;52.180;4.512;2024-03-06T05:24:59;102017.78;;;6.39;88.32
82033;BME280;71595;52.180;4.512;2024-03-06T05:27:24;102024.38;;;6.38;88.20
82033;BME280;71595;52.180;4.512;2024-03-06T05:29:50;102020.03;;;6.32;88.24
82033;BME280;71595;52.180;4.512;2024-03-06T05:32:15;102020.56;;;6.34;88.30
82033;BME280;71595;52.180;4.512;2024-03-06T05:34:41;102020.06;;;6.26;88.75
82033;BME280;71595;52.180;4.512;2024-03-06T05:37:06;102025.50;;;6.32;88.60
82033;BME280;71595;52.180;4.512;2024-03-06T05:39:32;102030.69;;;6.38;88.42
82033;BME280;71595;52.180;4.512;2024-03-06T05:42:03;102030.38;;;6.45;87.51
82033;BME280;71595;52.180;4.512;2024-03-06T05:44:30;102030.38;;;6.45;87.41
82033;BME280;71595;52.180;4.512;2024-03-06T05:46:56;102030.94;;;6.47;86.91
82033;BME280;71595;52.180;4.512;2024-03-06T05:49:22;102032.91;;;6.36;87.26
82033;BME280;71595;52.180;4.512;2024-03-06T05:51:47;102040.03;;;6.32;87.42
82033;BME280;71595;52.180;4.512;2024-03-06T05:54:12;102042.75;;;6.37;87.22
82033;BME280;71595;52.180;4.512;2024-03-06T05:56:38;102049.06;;;6.43;86.21
82033;BME280;71595;52.180;4.512;2024-03-06T05:59:04;102050.47;;;6.35;85.94
82033;BME280;71595;52.180;4.512;2024-03-06T06:01:33;102064.19;;;6.35;85.33
82033;BME280;71595;52.180;4.512;2024-03-06T06:03:58;102064.50;;;6.23;86.13
82033;BME280;71595;52.180;4.512;2024-03-06T06:06:25;102060.09;;;6.27;86.09
82033;BME280;71595;52.180;4.512;2024-03-06T06:08:51;102061.16;;;6.37;85.37
82033;BME280;71595;52.180;4.512;2024-03-06T06:11:16;102068.84;;;6.35;84.89
82033;BME280;71595;52.180;4.512;2024-03-06T06:13:42;102074.59;;;6.38;84.86
82033;BME280;71595;52.180;4.512;2024-03-06T06:16:07;102077.38;;;6.33;84.32
82033;BME280;71595;52.180;4.512;2024-03-06T06:18:33;102081.50;;;6.25;85.05
82033;BME280;71595;52.180;4.512;2024-03-06T06:20:58;102081.53;;;6.20;84.83
82033;BME280;71595;52.180;4.512;2024-03-06T06:23:24;102083.44;;;6.20;84.82
82033;BME280;71595;52.180;4.512;2024-03-06T06:25:49;102085.97;;;6.01;85.17
82033;BME280;71595;52.180;4.512;2024-03-06T06:28:15;102093.66;;;5.88;85.51
82033;BME280;71595;52.180;4.512;2024-03-06T06:30:40;102104.06;;;5.81;86.81
82033;BME280;71595;52.180;4.512;2024-03-06T06:33:06;102104.91;;;5.76;85.98
82033;BME280;71595;52.180;4.512;2024-03-06T06:35:31;102102.16;;;5.71;86.44
82033;BME280;71595;52.180;4.512;2024-03-06T06:37:57;102113.69;;;5.63;87.48
82033;BME280;71595;52.180;4.512;2024-03-06T06:40:22;102111.22;;;5.62;87.53
82033;BME280;71595;52.180;4.512;2024-03-06T06:42:49;102122.72;;;5.48;88.44
82033;BME280;71595;52.180;4.512;2024-03-06T06:45:18;102123.03;;;5.52;88.71
82033;BME280;71595;52.180;4.512;2024-03-06T06:47:51;102142.72;;;5.59;89.29
82033;BME280;71595;52.180;4.512;2024-03-06T06:50:16;102134.81;;;5.63;88.99
82033;BME280;71595;52.180;4.512;2024-03-06T06:52:42;102146.84;;;5.67;88.67
82033;BME280;71595;52.180;4.512;2024-03-06T06:55:07;102149.06;;;5.75;89.10
82033;BME280;71595;52.180;4.512;2024-03-06T06:57:34;102150.41;;;5.78;88.62
82033;BME280;71595;52.180;4.512;2024-03-06T07:00:00;102147.94;;;5.71;89.13
82033;BME280;71595;52.180;4.512;2024-03-06T07:02:26;102152.63;;;5.75;89.63
82033;BME280;71595;52.180;4.512;2024-03-06T07:04:52;102150.97;;;5.74;89.44
82033;BME280;71595;52.180;4.512;2024-03-06T07:07:17;102155.88;;;5.78;88.84
82033;BME280;71595;52.180;4.512;2024-03-06T07:09:43;102162.47;;;5.87;89.28
82033;BME280;71595;52.180;4.512;2024-03-06T07:18:52;102163.84;;;5.94;89.36
82033;BME280;71595;52.180;4.512;2024-03-06T07:21:18;102173.47;;;6.02;89.25
82033;BME280;71595;52.180;4.512;2024-03-06T07:23:43;102175.91;;;6.04;89.29
82033;BME280;71595;52.180;4.512;2024-03-06T07:26:09;102173.72;;;6.11;89.06
82033;BME280;71595;52.180;4.512;2024-03-06T07:28:34;102175.34;;;6.12;89.38
82033;BME280;71595;52.180;4.512;2024-03-06T07:31:00;102173.19;;;6.14;89.52
82033;BME280;71595;52.180;4.512;2024-03-06T07:33:25;102176.47;;;6.11;89.40
82033;BME280;71595;52.180;4.512;2024-03-06T07:35:50;102182.50;;;6.13;89.64
82033;BME280;71595;52.180;4.512;2024-03-06T07:38:22;102189.34;;;6.16;89.39
82033;BME280;71595;52.180;4.512;2024-03-06T07:40:48;102185.22;;;6.18;88.80
82033;BME280;71595;52.180;4.512;2024-03-06T07:43:13;102200.31;;;6.10;89.22
82033;BME280;71595;52.180;4.512;2024-03-06T07:45:39;102206.66;;;6.11;89.67
82033;BME280;71595;52.180;4.512;2024-03-06T07:48:05;102209.09;;;6.13;89.12
82033;BME280;71595;52.180;4.512;2024-03-06T07:50:30;102208.81;;;6.09;88.91
82033;BME280;71595;52.180;4.512;2024-03-06T07:52:55;102218.16;;;6.13;89.05
82033;BME280;71595;52.180;4.512;2024-03-06T07:55:21;102220.34;;;6.16;89.51
82033;BME280;71595;52.180;4.512;2024-03-06T07:57:47;102217.88;;;6.20;89.28
82033;BME280;71595;52.180;4.512;2024-03-06T08:00:13;102226.94;;;6.20;88.57
82033;BME280;71595;52.180;4.512;2024-03-06T08:02:44;102220.88;;;6.18;88.56
82033;BME280;71595;52.180;4.512;2024-03-06T08:05:15;102230.22;;;6.12;89.13
82033;BME280;71595;52.180;4.512;2024-03-06T08:07:41;102224.19;;;6.15;88.87
82033;BME280;71595;52.180;4.512;2024-03-06T08:10:11;102228.03;;;6.14;89.29
82033;BME280;71595;52.180;4.512;2024-03-06T08:12:40;102232.41;;;6.10;89.65
82033;BME280;71595;52.180;4.512;2024-03-06T08:15:08;102239.81;;;6.20;89.38
82033;BME280;71595;52.180;4.512;2024-03-06T08:17:35;102240.09;;;6.18;89.24
82033;BME280;71595;52.180;4.512;2024-03-06T08:20:02;102242.84;;;6.23;88.47
82033;BME280;71595;52.180;4.512;2024-03-06T08:22:31;102236.81;;;6.26;87.83
82033;BME280;71595;52.180;4.512;2024-03-06T08:24:56;102256.53;;;6.28;88.70
82033;BME280;71595;52.180;4.512;2024-03-06T08:27:21;102251.03;;;6.34;88.85
82033;BME280;71595;52.180;4.512;2024-03-06T08:29:47;102252.72;;;6.29;88.77
82033;BME280;71595;52.180;4.512;2024-03-06T08:32:13;102261.50;;;6.32;88.24
82033;BME280;71595;52.180;4.512;2024-03-06T08:34:39;102258.47;;;6.33;89.21
82033;BME280;71595;52.180;4.512;2024-03-06T08:37:05;102263.09;;;6.43;88.60
82033;BME280;71595;52.180;4.512;2024-03-06T08:39:31;102259.81;;;6.46;89.08
82033;BME280;71595;52.180;4.512;2024-03-06T08:41:57;102264.19;;;6.57;88.21
82033;BME280;71595;52.180;4.512;2024-03-06T08:44:23;102265.28;;;6.61;88.20
82033;BME280;71595;52.180;4.512;2024-03-06T08:46:51;102262.50;;;6.66;88.01
82033;BME280;71595;52.180;4.512;2024-03-06T08:49:16;102267.97;;;6.77;87.83
82033;BME280;71595;52.180;4.512;2024-03-06T08:51:42;102272.63;;;6.87;87.89
82033;BME280;71595;52.180;4.512;2024-03-06T08:54:07;102277.56;;;6.84;88.34
82033;BME280;71595;52.180;4.512;2024-03-06T08:56:32;102275.88;;;6.99;88.08
82033;BME280;71595;52.180;4.512;2024-03-06T08:58:59;102282.16;;;7.10;87.35
82033;BME280;71595;52.180;4.512;2024-03-06T09:01:24;102278.31;;;7.11;87.37
82033;BME280;71595;52.180;4.512;2024-03-06T09:03:50;102284.06;;;7.14;87.27
82033;BME280;71595;52.180;4.512;2024-03-06T09:06:15;102278.81;;;7.18;87.34
82033;BME280;71595;52.180;4.512;2024-03-06T09:08:41;102282.09;;;7.25;86.88
82033;BME280;71595;52.180;4.512;2024-03-06T09:11:06;102285.38;;;7.32;86.85
82033;BME280;71595;52.180;4.512;2024-03-06T09:13:32;102283.69;;;7.36;86.92
82033;BME280;71595;52.180;4.512;2024-03-06T09:15:57;102282.50;;;7.48;86.12
82033;BME280;71595;52.180;4.512;2024-03-06T09:18:23;102277.53;;;7.55;86.04
82033;BME280;71595;52.180;4.512;2024-03-06T09:20:49;102292.00;;;7.71;84.78
82033;BME280;71595;52.180;4.512;2024-03-06T09:23:14;102298.84;;;7.79;84.34
82033;BME280;71595;52.180;4.512;2024-03-06T09:25:41;102302.13;;;7.81;84.48
82033;BME280;71595;52.180;4.512;2024-03-06T09:28:06;102309.25;;;7.87;84.20
82033;BME280;71595;52.180;4.512;2024-03-06T09:30:34;102302.56;;;7.93;84.41
82033;BME280;71595;52.180;4.512;2024-03-06T09:32:59;102302.81;;;8.02;83.96
82033;BME280;71595;52.180;4.512;2024-03-06T09:35:24;102311.00;;;8.07;84.05
82033;BME280;71595;52.180;4.512;2024-03-06T09:37:50;102317.00;;;8.14;84.01
82033;BME280;71595;52.180;4.512;2024-03-06T09:40:22;102317.25;;;8.18;83.65
82033;BME280;71595;52.180;4.512;2024-03-06T09:42:49;102322.69;;;8.28;83.66
82033;BME280;71595;52.180;4.512;2024-03-06T09:45:15;102321.53;;;8.34;83.17
82033;BME280;71595;52.180;4.512;2024-03-06T09:47:42;102320.97;;;8.37;82.56
82033;BME280;71595;52.180;4.512;2024-03-06T09:50:09;102320.38;;;8.40;82.78
82033;BME280;71595;52.180;4.512;2024-03-06T09:52:36;102328.63;;;8.45;82.31
82033;BME280;71595;52.180;4.512;2024-03-06T09:55:01;102325.25;;;8.54;82.03
82033;BME280;71595;52.180;4.512;2024-03-06T09:57:27;102324.66;;;8.57;82.02
82033;BME280;71595;52.180;4.512;2024-03-06T09:59:56;102327.91;;;8.64;82.13
82033;BME280;71595;52.180;4.512;2024-03-06T10:02:31;102335.81;;;8.71;81.47
82033;BME280;71595;52.180;4.512;2024-03-06T10:04:59;102337.41;;;8.77;81.08
82033;BME280;71595;52.180;4.512;2024-03-06T10:07:25;102336.53;;;8.81;80.66
82033;BME280;71595;52.180;4.512;2024-03-06T10:09:52;102339.25;;;8.87;80.27
82033;BME280;71595;52.180;4.512;2024-03-06T10:12:18;102340.84;;;8.93;80.57
82033;BME280;71595;52.180;4.512;2024-03-06T10:14:50;102344.66;;;8.97;79.92
82033;BME280;71595;52.180;4.512;2024-03-06T10:17:20;102336.88;;;9.04;80.04
82033;BME280;71595;52.180;4.512;2024-03-06T10:19:49;102343.97;;;9.10;79.95
82033;BME280;71595;52.180;4.512;2024-03-06T10:22:21;102348.31;;;9.16;79.70
82033;BME280;71595;52.180;4.512;2024-03-06T10:24:49;102347.13;;;9.23;79.33
82033;BME280;71595;52.180;4.512;2024-03-06T10:27:45;102349.53;;;9.29;78.71
82033;BME280;71595;52.180;4.512;2024-03-06T10:30:11;102346.47;;;9.31;77.96
82033;BME280;71595;52.180;4.512;2024-03-06T10:32:39;102351.91;;;9.36;77.58
82033;BME280;71595;52.180;4.512;2024-03-06T10:35:05;102353.78;;;9.41;77.90
82033;BME280;71595;52.180;4.512;2024-03-06T10:37:32;102353.19;;;9.44;77.55
82033;BME280;71595;52.180;4.512;2024-03-06T10:40:02;102353.75;;;9.46;77.68
82033;BME280;71595;52.180;4.512;2024-03-06T10:42:32;102355.66;;;9.45;77.05
82033;BME280;71595;52.180;4.512;2024-03-06T10:44:59;102357.31;;;9.46;77.04
82033;BME280;71595;52.180;4.512;2024-03-06T10:47:26;102358.34;;;9.50;77.56
82033;BME280;71595;52.180;4.512;2024-03-06T10:49:53;102358.91;;;9.52;76.96
82033;BME280;71595;52.180;4.512;2024-03-06T10:52:21;102364.34;;;9.58;76.94
82033;BME280;71595;52.180;4.512;2024-03-06T10:54:48;102360.91;;;9.66;77.18
82033;BME280;71595;52.180;4.512;2024-03-06T10:57:14;102367.69;;;9.74;76.93
82033;BME280;71595;52.180;4.512;2024-03-06T10:59:40;102366.31;;;9.76;76.67
82033;BME280;71595;52.180;4.512;2024-03-06T11:02:08;102375.09;;;9.78;76.29
82033;BME280;71595;52.180;4.512;2024-03-06T11:04:33;102378.09;;;9.82;76.31
82033;BME280;71595;52.180;4.512;2024-03-06T11:07:03;102367.56;;;9.84;76.48
82033;BME280;71595;52.180;4.512;2024-03-06T11:09:35;102371.44;;;9.83;76.84
82033;BME280;71595;52.180;4.512;2024-03-06T11:12:03;102370.63;;;9.82;76.63
82033;BME280;71595;52.180;4.512;2024-03-06T11:14:36;102381.66;;;9.82;76.31
82033;BME280;71595;52.180;4.512;2024-03-06T11:17:07;102382.19;;;9.84;76.48
82033;BME280;71595;52.180;4.512;2024-03-06T11:28:16;102379.72;;;10.02;73.29
82033;BME280;71595;52.180;4.512;2024-03-06T11:31:00;102382.34;;;9.93;73.42
82033;BME280;71595;52.180;4.512;2024-03-06T11:33:37;102383.41;;;9.97;74.15
82033;BME280;71595;52.180;4.512;2024-03-06T11:36:22;102383.25;;;10.07;74.76
82033;BME280;71595;52.180;4.512;2024-03-06T11:38:50;102390.25;;;10.19;74.61
82033;BME280;71595;52.180;4.512;2024-03-06T11:41:15;102387.63;;;10.28;74.18
82033;BME280;71595;52.180;4.512;2024-03-06T11:43:43;102394.34;;;10.21;73.25
82033;BME280;71595;52.180;4.512;2024-03-06T11:49:32;102393.56;;;10.40;71.87
82033;BME280;71595;52.180;4.512;2024-03-06T11:52:04;102396.16;;;10.50;72.21
82033;BME280;71595;52.180;4.512;2024-03-06T11:54:33;102393.91;;;10.52;69.10
82033;BME280;71595;52.180;4.512;2024-03-06T11:57:01;102389.84;;;10.64;70.10
82033;BME280;71595;52.180;4.512;2024-03-06T11:59:29;102388.84;;;10.73;70.26
82033;BME280;71595;52.180;4.512;2024-03-06T12:01:57;102391.75;;;10.82;70.63
82033;BME280;71595;52.180;4.512;2024-03-06T12:04:23;102390.31;;;10.85;70.45
82033;BME280;71595;52.180;4.512;2024-03-06T12:06:49;102390.09;;;10.81;69.84
82033;BME280;71595;52.180;4.512;2024-03-06T12:09:15;102389.41;;;10.89;69.56
82033;BME280;71595;52.180;4.512;2024-03-06T12:11:41;102397.31;;;10.96;68.82
82033;BME280;71595;52.180;4.512;2024-03-06T12:14:14;102395.78;;;11.04;68.58
82033;BME280;71595;52.180;4.512;2024-03-06T12:16:40;102390.53;;;10.88;66.42
82033;BME280;71595;52.180;4.512;2024-03-06T12:19:05;102384.22;;;11.02;66.74
82033;BME280;71595;52.180;4.512;2024-03-06T12:21:31;102393.53;;;11.06;67.04
82033;BME280;71595;52.180;4.512;2024-03-06T12:24:10;102398.41;;;10.95;67.28
82033;BME280;71595;52.180;4.512;2024-03-06T12:26:36;102397.47;;;10.86;67.17
82033;BME280;71595;52.180;4.512;2024-03-06T12:29:10;102403.91;;;10.81;67.93
82033;BME280;71595;52.180;4.512;2024-03-06T12:31:38;102401.75;;;10.78;68.16
82033;BME280;71595;52.180;4.512;2024-03-06T12:34:07;102402.34;;;10.75;67.66
82033;BME280;71595;52.180;4.512;2024-03-06T12:36:33;102399.53;;;10.80;67.44
82033;BME280;71595;52.180;4.512;2024-03-06T12:39:07;102408.47;;;10.91;66.44
82033;BME280;71595;52.180;4.512;2024-03-06T12:41:40;102399.16;;;11.01;65.27
82033;BME280;71595;52.180;4.512;2024-03-06T12:44:05;102402.41;;;11.03;65.81
82033;BME280;71595;52.180;4.512;2024-03-06T12:46:32;102402.31;;;10.94;64.73
82033;BME280;71595;52.180;4.512;2024-03-06T12:48:58;102404.75;;;10.82;64.92
82033;BME280;71595;52.180;4.512;2024-03-06T12:51:23;102407.88;;;10.75;64.84
82033;BME280;71595;52.180;4.512;2024-03-06T12:53:48;102406.31;;;10.69;65.98
82033;BME280;71595;52.180;4.512;2024-03-06T12:56:14;102406.88;;;10.71;66.64
82033;BME280;71595;52.180;4.512;2024-03-06T12:58:39;102407.69;;;10.71;66.20
82033;BME280;71595;52.180;4.512;2024-03-06T13:01:04;102404.41;;;10.69;65.41
82033;BME280;71595;52.180;4.512;2024-03-06T13:03:31;102404.44;;;10.83;65.18
82033;BME280;71595;52.180;4.512;2024-03-06T13:05:56;102404.44;;;10.83;65.63
82033;BME280;71595;52.180;4.512;2024-03-06T13:08:21;102399.59;;;10.75;65.70
82033;BME280;71595;52.180;4.512;2024-03-06T13:10:47;102399.09;;;10.73;66.58
82033;BME280;71595;52.180;4.512;2024-03-06T13:13:12;102396.41;;;10.68;66.28
82033;BME280;71595;52.180;4.512;2024-03-06T13:15:38;102402.53;;;10.65;66.12